createdAt,value
2022-12-31T00:00:43.819Z,26.95
2022-12-31T00:03:14.980Z,27.38
2022-12-31T00:05:45.657Z,27.53
2022-12-31T00:08:16.652Z,26.92
2022-12-31T00:10:47.593Z,27.56
2022-12-31T00:13:18.541Z,26.88
2022-12-31T00:15:49.406Z,27.33
2022-12-31T00:18:20.607Z,27.39
2022-12-31T00:20:51.955Z,28.21
2022-12-31T00:23:23.013Z,28.01
2022-12-31T00:25:54.128Z,27.75
2022-12-31T00:28:25.100Z,28.18
2022-12-31T00:30:56.184Z,28.79
2022-12-31T00:33:28.997Z,29.00
2022-12-31T00:36:11.337Z,28.49
2022-12-31T00:38:44.019Z,29.12
2022-12-31T00:41:15.961Z,29.90
2022-12-31T00:43:47.115Z,28.89
2022-12-31T00:46:19.236Z,28.00
2022-12-31T00:48:51.219Z,28.50
2022-12-31T00:51:24.174Z,29.34
2022-12-31T00:53:55.599Z,29.47
2022-12-31T00:56:29.830Z,29.00
2022-12-31T00:59:02.225Z,29.37
2022-12-31T01:01:38.538Z,29.47
2022-12-31T01:04:21.904Z,29.83
2022-12-31T01:06:52.990Z,29.88
2022-12-31T01:09:24.080Z,28.26
2022-12-31T01:11:55.270Z,28.62
2022-12-31T01:14:26.580Z,28.84
2022-12-31T01:16:57.026Z,29.23
2022-12-31T01:19:30.455Z,29.56
2022-12-31T01:22:01.751Z,29.46
2022-12-31T01:24:32.243Z,29.47
2022-12-31T01:27:03.521Z,28.88
2022-12-31T01:29:34.738Z,29.70
2022-12-31T01:32:06.804Z,29.37
2022-12-31T01:34:38.407Z,28.75
2022-12-31T01:37:09.760Z,29.86
2022-12-31T01:39:40.678Z,28.44
2022-12-31T01:42:14.123Z,28.90
2022-12-31T01:44:45.320Z,28.45
2022-12-31T01:47:19.421Z,29.16
2022-12-31T01:49:55.575Z,29.68
2022-12-31T01:52:40.362Z,31.14
2022-12-31T01:55:21.524Z,30.18
2022-12-31T01:57:54.749Z,30.19
2022-12-31T02:00:25.856Z,30.38
2022-12-31T02:02:57.593Z,30.51
2022-12-31T02:05:54.259Z,31.22
2022-12-31T02:08:25.330Z,31.42
2022-12-31T02:10:56.260Z,30.55
2022-12-31T02:13:26.757Z,30.54
2022-12-31T02:16:14.238Z,31.03
2022-12-31T02:18:49.494Z,30.20
2022-12-31T02:21:32.196Z,30.78
2022-12-31T02:24:18.487Z,30.97
2022-12-31T02:27:04.071Z,30.74
2022-12-31T02:29:59.527Z,30.95
2022-12-31T02:33:02.936Z,30.78
2022-12-31T02:35:50.280Z,31.34
2022-12-31T02:38:25.179Z,30.80
2022-12-31T02:40:57.055Z,30.93
2022-12-31T02:43:28.709Z,31.58
2022-12-31T02:46:28.017Z,31.70
2022-12-31T02:49:05.809Z,32.07
2022-12-31T02:52:05.889Z,30.81
2022-12-31T02:54:46.742Z,31.47
2022-12-31T02:57:29.809Z,31.11
2022-12-31T03:00:25.475Z,30.95
2022-12-31T03:02:57.762Z,31.22
2022-12-31T03:05:31.222Z,31.29
2022-12-31T03:08:02.395Z,31.20
2022-12-31T03:10:33.740Z,31.14
2022-12-31T03:13:05.383Z,30.98
2022-12-31T03:15:37.198Z,31.24
2022-12-31T03:18:17.086Z,31.77
2022-12-31T03:21:09.566Z,31.88
2022-12-31T03:23:51.615Z,31.21
2022-12-31T03:26:22.500Z,31.25
2022-12-31T03:28:52.940Z,31.09
2022-12-31T03:31:24.089Z,31.11
2022-12-31T03:33:55.342Z,30.87
2022-12-31T03:36:26.821Z,30.73
2022-12-31T03:38:57.779Z,31.41
2022-12-31T03:41:29.198Z,31.64
2022-12-31T03:44:01.543Z,31.58
2022-12-31T03:46:32.600Z,30.97
2022-12-31T03:49:02.967Z,30.36
2022-12-31T03:51:34.216Z,30.57
2022-12-31T03:54:06.059Z,31.18
2022-12-31T03:56:37.297Z,29.71
2022-12-31T03:59:08.378Z,29.24
2022-12-31T04:01:39.871Z,29.07
2022-12-31T04:04:10.306Z,29.91
2022-12-31T04:06:41.250Z,29.58
2022-12-31T04:09:12.223Z,30.03
2022-12-31T04:11:43.523Z,30.27
2022-12-31T04:14:14.902Z,30.77
2022-12-31T04:16:45.954Z,30.45
2022-12-31T04:19:17.270Z,29.36
2022-12-31T04:21:48.619Z,30.42
2022-12-31T04:24:19.951Z,29.48
2022-12-31T04:26:50.959Z,29.77
2022-12-31T04:29:22.375Z,30.08
2022-12-31T04:31:52.887Z,31.57
2022-12-31T04:34:24.345Z,30.95
2022-12-31T04:36:55.237Z,30.39
2022-12-31T04:39:27.484Z,30.67
2022-12-31T04:41:58.938Z,29.85
2022-12-31T04:44:30.562Z,29.94
2022-12-31T04:47:01.581Z,30.37
2022-12-31T04:49:32.813Z,29.55
2022-12-31T04:52:03.946Z,29.56
2022-12-31T04:54:35.420Z,30.42
2022-12-31T04:57:07.986Z,30.33
2022-12-31T04:59:39.160Z,29.79
2022-12-31T05:02:11.115Z,30.44
2022-12-31T05:04:42.643Z,30.06
2022-12-31T05:07:13.745Z,29.97
2022-12-31T05:09:44.622Z,29.99
2022-12-31T05:12:15.084Z,29.99
2022-12-31T05:14:46.243Z,29.88
2022-12-31T05:17:17.667Z,29.78
2022-12-31T05:19:49.113Z,29.96
2022-12-31T05:22:31.818Z,30.21
2022-12-31T05:25:03.426Z,30.19
2022-12-31T05:27:34.691Z,29.72
2022-12-31T05:30:06.211Z,29.10
2022-12-31T05:32:37.287Z,28.90
2022-12-31T05:35:09.286Z,29.68
2022-12-31T05:37:40.408Z,29.76
2022-12-31T05:40:11.274Z,29.36
2022-12-31T05:42:42.321Z,29.09
2022-12-31T05:45:16.858Z,28.74
2022-12-31T05:47:48.957Z,27.83
2022-12-31T05:50:19.496Z,27.41
2022-12-31T05:52:57.772Z,27.45
2022-12-31T05:55:29.289Z,26.59
2022-12-31T05:58:00.674Z,26.29
2022-12-31T06:00:32.702Z,26.53
2022-12-31T06:03:03.886Z,25.89
2022-12-31T06:05:35.547Z,25.83
2022-12-31T06:08:06.956Z,25.45
2022-12-31T06:10:38.349Z,25.25
2022-12-31T06:13:10.097Z,25.18
2022-12-31T06:15:42.399Z,24.86
2022-12-31T06:18:13.698Z,24.73
2022-12-31T06:20:44.780Z,24.70
2022-12-31T06:23:15.918Z,24.78
2022-12-31T06:25:47.130Z,24.77
2022-12-31T06:28:20.302Z,24.43
2022-12-31T06:30:51.931Z,24.67
2022-12-31T06:33:23.107Z,24.78
2022-12-31T06:36:01.867Z,24.63
2022-12-31T06:38:34.359Z,24.77
2022-12-31T06:41:11.615Z,24.88
2022-12-31T06:43:43.809Z,24.83
2022-12-31T06:46:17.564Z,24.85
2022-12-31T06:48:48.936Z,24.59
2022-12-31T06:51:21.964Z,24.44
2022-12-31T06:53:53.766Z,24.22
2022-12-31T06:56:34.396Z,24.25
2022-12-31T06:59:06.896Z,24.15
2022-12-31T07:01:50.272Z,23.97
2022-12-31T07:04:30.698Z,23.83
2022-12-31T07:07:15.522Z,23.65
2022-12-31T07:10:33.822Z,23.45
2022-12-31T07:13:45.153Z,23.33
2022-12-31T07:16:22.445Z,23.28
2022-12-31T07:19:16.698Z,23.09
2022-12-31T07:21:48.432Z,22.94
2022-12-31T07:24:19.756Z,23.04
2022-12-31T07:27:25.081Z,22.78
2022-12-31T07:30:05.015Z,22.49
2022-12-31T07:32:58.729Z,22.51
2022-12-31T07:35:57.219Z,22.43
2022-12-31T07:38:52.771Z,22.44
2022-12-31T07:41:39.101Z,22.32
2022-12-31T07:44:36.897Z,22.45
2022-12-31T07:47:10.372Z,22.38
2022-12-31T07:49:43.623Z,22.23
2022-12-31T07:52:14.796Z,22.26
2022-12-31T07:55:03.501Z,22.32
2022-12-31T07:57:51.082Z,22.28
2022-12-31T08:00:22.549Z,22.15
2022-12-31T08:03:23.903Z,22.05
2022-12-31T08:06:22.928Z,22.03
2022-12-31T08:09:11.176Z,21.90
2022-12-31T08:11:50.627Z,22.16
2022-12-31T08:14:22.332Z,21.63
2022-12-31T08:16:53.821Z,21.86
2022-12-31T08:19:29.034Z,21.67
2022-12-31T08:22:18.225Z,21.83
2022-12-31T08:25:10.787Z,21.60
2022-12-31T08:27:52.717Z,21.65
2022-12-31T08:30:24.808Z,21.52
2022-12-31T08:33:17.752Z,21.38
2022-12-31T08:36:22.323Z,21.24
2022-12-31T08:38:57.747Z,21.11
2022-12-31T08:41:37.616Z,21.25
2022-12-31T08:44:18.352Z,21.12
2022-12-31T08:47:04.477Z,21.00
2022-12-31T08:49:37.246Z,20.93
2022-12-31T08:52:17.593Z,20.99
2022-12-31T08:54:49.059Z,21.02
2022-12-31T08:57:25.565Z,20.83
2022-12-31T09:00:17.836Z,20.66
2022-12-31T09:03:01.160Z,20.61
2022-12-31T09:05:56.456Z,20.48
2022-12-31T09:08:55.088Z,20.47
2022-12-31T09:11:33.484Z,20.34
2022-12-31T09:14:11.162Z,20.26
2022-12-31T09:16:51.479Z,20.21
2022-12-31T09:19:23.156Z,20.16
2022-12-31T09:21:54.933Z,20.11
2022-12-31T09:24:26.058Z,20.19
2022-12-31T09:27:16.261Z,20.18
2022-12-31T09:29:53.364Z,20.31
2022-12-31T09:33:00.851Z,20.14
2022-12-31T09:36:10.970Z,20.13
2022-12-31T09:38:48.021Z,20.08
2022-12-31T09:41:40.744Z,19.99
2022-12-31T09:44:48.462Z,20.03
2022-12-31T09:47:22.587Z,20.11
2022-12-31T09:50:19.568Z,19.95
2022-12-31T09:53:20.776Z,20.05
2022-12-31T09:55:59.022Z,20.04
2022-12-31T09:58:54.537Z,20.09
2022-12-31T10:01:53.297Z,20.22
2022-12-31T10:04:55.212Z,20.08
2022-12-31T10:07:38.355Z,20.12
2022-12-31T10:10:16.982Z,19.93
2022-12-31T10:13:15.710Z,19.81
2022-12-31T10:16:04.556Z,19.77
2022-12-31T10:18:51.930Z,19.47
2022-12-31T10:21:50.345Z,19.42
2022-12-31T10:24:42.518Z,19.38
2022-12-31T10:27:19.699Z,19.32
2022-12-31T10:29:58.299Z,19.23
2022-12-31T10:32:58.072Z,19.25
2022-12-31T10:35:56.465Z,19.14
2022-12-31T10:38:32.664Z,19.08
2022-12-31T10:41:21.490Z,19.04
2022-12-31T10:44:16.694Z,18.93
2022-12-31T10:47:14.811Z,18.87
2022-12-31T10:49:55.175Z,18.95
2022-12-31T10:52:41.670Z,18.93
2022-12-31T10:55:34.455Z,18.95
2022-12-31T10:58:22.956Z,18.97
2022-12-31T11:01:20.087Z,18.77
2022-12-31T11:04:36.296Z,18.85
2022-12-31T11:07:45.055Z,18.73
2022-12-31T11:10:52.548Z,18.71
2022-12-31T11:14:20.159Z,18.50
2022-12-31T11:17:23.503Z,18.42
2022-12-31T11:20:00.380Z,18.48
2022-12-31T11:22:56.463Z,18.29
2022-12-31T11:25:50.500Z,18.31
2022-12-31T11:28:21.848Z,18.38
2022-12-31T11:30:55.799Z,18.36
2022-12-31T11:33:36.008Z,18.36
2022-12-31T11:36:34.911Z,18.30
2022-12-31T11:39:31.262Z,18.19
2022-12-31T11:42:29.271Z,18.21
2022-12-31T11:45:33.832Z,18.26
2022-12-31T11:48:30.094Z,18.14
2022-12-31T11:51:11.297Z,18.19
2022-12-31T11:54:06.484Z,18.13
2022-12-31T11:56:41.010Z,18.19
2022-12-31T11:59:19.200Z,18.06
2022-12-31T12:01:54.645Z,17.99
2022-12-31T12:04:26.460Z,18.23
2022-12-31T12:06:57.929Z,18.09
2022-12-31T12:09:31.482Z,18.05
2022-12-31T12:12:05.484Z,18.03
2022-12-31T12:14:43.072Z,18.08
2022-12-31T12:17:35.788Z,18.11
2022-12-31T12:20:20.420Z,17.89
2022-12-31T12:22:54.242Z,17.88
2022-12-31T12:25:27.683Z,17.92
2022-12-31T12:27:58.663Z,17.95
2022-12-31T12:30:30.753Z,17.83
2022-12-31T12:33:06.163Z,17.85
2022-12-31T12:35:38.458Z,17.73
2022-12-31T12:38:20.539Z,17.91
2022-12-31T12:41:07.309Z,17.75
2022-12-31T12:43:39.682Z,17.82
2022-12-31T12:46:46.086Z,17.73
2022-12-31T12:49:26.776Z,17.72
2022-12-31T12:52:06.980Z,17.79
2022-12-31T12:54:48.654Z,17.80
2022-12-31T12:57:25.482Z,17.80
2022-12-31T13:00:11.968Z,17.94
2022-12-31T13:03:33.172Z,17.68
2022-12-31T13:06:31.915Z,17.64
2022-12-31T13:09:30.342Z,17.69
2022-12-31T13:12:07.281Z,17.68
2022-12-31T13:14:54.597Z,17.60
2022-12-31T13:17:52.706Z,17.70
2022-12-31T13:20:43.516Z,17.63
2022-12-31T13:23:25.362Z,17.53
2022-12-31T13:25:58.595Z,17.48
2022-12-31T13:28:29.445Z,17.52
2022-12-31T13:31:42.449Z,17.59
2022-12-31T13:34:19.140Z,17.58
2022-12-31T13:36:52.331Z,17.68
2022-12-31T13:39:37.505Z,17.52
2022-12-31T13:42:24.664Z,17.49
2022-12-31T13:45:11.678Z,17.51
2022-12-31T13:47:56.436Z,17.44
2022-12-31T13:50:43.025Z,17.49
2022-12-31T13:53:23.841Z,17.42
2022-12-31T13:55:59.756Z,17.52
2022-12-31T13:58:40.252Z,17.36
2022-12-31T14:01:36.144Z,17.34
2022-12-31T14:04:13.966Z,17.32
2022-12-31T14:07:00.512Z,17.39
2022-12-31T14:09:35.073Z,17.47
2022-12-31T14:12:12.699Z,17.27
2022-12-31T14:14:52.414Z,17.15
2022-12-31T14:17:48.711Z,17.36
2022-12-31T14:20:37.345Z,17.15
2022-12-31T14:23:33.011Z,17.16
2022-12-31T14:26:07.825Z,17.12
2022-12-31T14:28:47.117Z,17.17
2022-12-31T14:31:27.892Z,17.15
2022-12-31T14:34:16.450Z,17.02
2022-12-31T14:37:25.757Z,17.11
2022-12-31T14:40:17.389Z,17.02
2022-12-31T14:42:58.173Z,17.10
2022-12-31T14:45:50.092Z,17.01
2022-12-31T14:48:44.264Z,16.96
2022-12-31T14:51:15.735Z,17.08
2022-12-31T14:53:58.257Z,16.96
2022-12-31T14:56:47.941Z,16.99
2022-12-31T14:59:37.271Z,16.99
2022-12-31T15:02:32.581Z,16.86
2022-12-31T15:05:13.259Z,16.97
2022-12-31T15:07:50.253Z,16.84
2022-12-31T15:10:36.623Z,17.00
2022-12-31T15:13:18.071Z,16.99
2022-12-31T15:16:10.495Z,16.88
2022-12-31T15:18:52.347Z,16.74
2022-12-31T15:21:57.036Z,16.68
2022-12-31T15:24:31.995Z,16.80
2022-12-31T15:27:06.180Z,16.68
2022-12-31T15:29:45.044Z,16.65
2022-12-31T15:32:27.458Z,16.58
2022-12-31T15:35:24.493Z,16.61
2022-12-31T15:38:17.129Z,16.54
2022-12-31T15:40:53.978Z,16.44
2022-12-31T15:43:46.482Z,16.42
2022-12-31T15:46:21.311Z,16.32
2022-12-31T15:49:15.612Z,16.25
2022-12-31T15:51:54.013Z,16.27
2022-12-31T15:54:38.727Z,16.23
2022-12-31T15:57:15.900Z,16.15
2022-12-31T15:59:47.517Z,16.14
2022-12-31T16:02:25.654Z,16.03
2022-12-31T16:04:57.278Z,16.00
2022-12-31T16:07:29.970Z,16.03
2022-12-31T16:10:02.316Z,16.12
2022-12-31T16:12:42.460Z,16.04
2022-12-31T16:15:23.322Z,16.09
2022-12-31T16:18:06.015Z,16.26
2022-12-31T16:20:48.720Z,16.29
2022-12-31T16:23:29.308Z,16.18
2022-12-31T16:26:03.111Z,16.21
2022-12-31T16:28:35.325Z,16.23
2022-12-31T16:31:09.325Z,16.22
2022-12-31T16:33:40.515Z,16.23
2022-12-31T16:36:25.476Z,16.17
2022-12-31T16:39:00.885Z,16.23
2022-12-31T16:41:44.010Z,16.25
2022-12-31T16:44:29.531Z,16.21
2022-12-31T16:47:05.434Z,16.30
2022-12-31T16:49:39.633Z,16.25
2022-12-31T16:52:24.381Z,16.26
2022-12-31T16:54:55.567Z,16.34
2022-12-31T16:57:29.180Z,16.36
2022-12-31T17:00:08.534Z,16.45
2022-12-31T17:02:42.175Z,16.44
2022-12-31T17:05:31.678Z,16.32
2022-12-31T17:08:21.959Z,16.33
2022-12-31T17:10:53.887Z,16.42
2022-12-31T17:13:31.831Z,16.43
2022-12-31T17:16:03.647Z,16.52
2022-12-31T17:18:39.841Z,16.45
2022-12-31T17:21:12.305Z,16.39
2022-12-31T17:23:44.027Z,16.43
2022-12-31T17:26:15.662Z,16.62
2022-12-31T17:28:47.814Z,16.58
2022-12-31T17:31:38.873Z,16.63
2022-12-31T17:34:16.126Z,16.65
2022-12-31T17:37:25.727Z,16.73
2022-12-31T17:40:40.605Z,16.63
2022-12-31T17:42:54.737Z,16.65
2022-12-31T17:45:26.159Z,16.73
2022-12-31T17:48:01.241Z,16.79
2022-12-31T17:50:32.407Z,16.86
2022-12-31T17:53:11.997Z,16.80
2022-12-31T17:55:44.692Z,16.73
2022-12-31T17:58:30.661Z,16.81
2022-12-31T18:01:02.562Z,16.80
2022-12-31T18:03:34.500Z,16.88
2022-12-31T18:06:09.163Z,16.80
2022-12-31T18:08:44.190Z,16.89
2022-12-31T18:11:19.484Z,16.99
2022-12-31T18:13:50.874Z,16.98
2022-12-31T18:16:22.069Z,17.04
2022-12-31T18:18:53.321Z,16.90
2022-12-31T18:21:35.963Z,16.89
2022-12-31T18:24:07.488Z,16.85
2022-12-31T18:26:38.406Z,16.83
2022-12-31T18:29:21.356Z,17.01
2022-12-31T18:31:53.348Z,17.01
2022-12-31T18:34:24.511Z,17.20
2022-12-31T18:36:55.471Z,17.22
2022-12-31T18:39:26.590Z,17.33
2022-12-31T18:41:57.831Z,17.29
2022-12-31T18:44:28.979Z,17.50
2022-12-31T18:47:00.622Z,17.48
2022-12-31T18:49:32.015Z,17.62
2022-12-31T18:52:03.306Z,17.58
2022-12-31T18:54:34.333Z,17.57
2022-12-31T18:57:05.511Z,17.65
2022-12-31T18:59:36.728Z,17.77
2022-12-31T19:02:16.517Z,17.74
2022-12-31T19:04:47.882Z,18.11
2022-12-31T19:07:19.099Z,18.70
2022-12-31T19:09:54.659Z,19.10
2022-12-31T19:12:29.948Z,19.47
2022-12-31T19:15:01.322Z,19.85
2022-12-31T19:17:33.736Z,19.65
2022-12-31T19:20:05.832Z,19.68
2022-12-31T19:22:36.882Z,20.00
2022-12-31T19:25:24.018Z,19.61
2022-12-31T19:27:55.683Z,19.63
2022-12-31T19:30:28.791Z,19.82
2022-12-31T19:32:59.862Z,20.20
2022-12-31T19:35:30.973Z,20.55
2022-12-31T19:38:02.355Z,20.43
2022-12-31T19:40:34.020Z,20.50
2022-12-31T19:43:05.183Z,20.31
2022-12-31T19:45:36.370Z,20.72
2022-12-31T19:48:07.656Z,20.18
2022-12-31T19:50:38.819Z,20.11
2022-12-31T19:53:13.574Z,20.44
2022-12-31T19:55:45.122Z,20.67
2022-12-31T19:58:27.465Z,20.83
2022-12-31T20:01:02.690Z,20.95
2022-12-31T20:03:35.551Z,21.39
2022-12-31T20:06:11.717Z,21.73
2022-12-31T20:08:46.107Z,21.66
2022-12-31T20:11:26.023Z,21.62
2022-12-31T20:13:57.780Z,21.69
2022-12-31T20:16:31.088Z,21.71
2022-12-31T20:19:02.784Z,21.55
2022-12-31T20:21:33.795Z,22.15
2022-12-31T20:24:05.451Z,21.94
2022-12-31T20:26:36.324Z,22.19
2022-12-31T20:29:07.515Z,22.09
2022-12-31T20:31:38.686Z,22.65
2022-12-31T20:34:09.661Z,22.33
2022-12-31T20:36:41.591Z,22.81
2022-12-31T20:39:11.841Z,22.79
2022-12-31T20:41:43.258Z,22.25
2022-12-31T20:44:14.522Z,22.81
2022-12-31T20:46:45.759Z,23.01
2022-12-31T20:49:23.713Z,23.22
2022-12-31T20:52:07.933Z,22.63
2022-12-31T20:54:38.949Z,22.47
2022-12-31T20:57:10.467Z,23.16
2022-12-31T20:59:41.283Z,23.56
2022-12-31T21:02:21.232Z,23.50
2022-12-31T21:04:53.240Z,23.21
2022-12-31T21:07:24.521Z,22.82
2022-12-31T21:09:55.654Z,23.72
2022-12-31T21:12:45.244Z,23.39
2022-12-31T21:15:17.088Z,23.75
2022-12-31T21:17:48.653Z,23.40
2022-12-31T21:20:20.448Z,23.55
2022-12-31T21:22:51.600Z,23.74
2022-12-31T21:25:22.527Z,23.69
2022-12-31T21:27:53.592Z,23.95
2022-12-31T21:30:24.739Z,23.83
2022-12-31T21:32:55.942Z,23.79
2022-12-31T21:35:48.440Z,24.01
2022-12-31T21:38:18.484Z,24.66
2022-12-31T21:40:50.009Z,24.45
2022-12-31T21:43:21.530Z,24.68
2022-12-31T21:46:01.210Z,25.13
2022-12-31T21:51:11.619Z,25.11
2022-12-31T21:53:42.809Z,24.09
2022-12-31T21:56:16.080Z,24.59
2022-12-31T21:59:14.619Z,24.91
2022-12-31T22:02:03.923Z,24.42
2022-12-31T22:05:01.334Z,25.34
2022-12-31T22:07:26.511Z,23.46
2022-12-31T22:09:57.849Z,24.68
2022-12-31T22:12:29.036Z,25.18
2022-12-31T22:15:14.693Z,25.62
2022-12-31T22:17:48.178Z,25.88
2022-12-31T22:20:28.309Z,25.73
2022-12-31T22:22:59.864Z,26.60
2022-12-31T22:25:30.613Z,26.07
2022-12-31T22:30:52.446Z,24.67
2022-12-31T22:33:23.741Z,24.07
2022-12-31T22:36:08.637Z,25.23
2022-12-31T22:38:40.983Z,25.40
2022-12-31T22:41:13.415Z,24.78
2022-12-31T22:43:47.608Z,24.84
2022-12-31T22:46:27.599Z,25.27
2022-12-31T22:49:02.464Z,26.62
2022-12-31T22:51:56.643Z,26.02
2022-12-31T22:54:26.161Z,25.55
2022-12-31T22:56:57.186Z,25.63
2022-12-31T22:59:27.894Z,25.25
2022-12-31T23:01:59.081Z,25.12
2022-12-31T23:04:30.133Z,24.16
2022-12-31T23:09:49.006Z,24.11
2022-12-31T23:12:20.216Z,24.61
2022-12-31T23:15:09.067Z,23.42
2022-12-31T23:17:58.374Z,23.11
2022-12-31T23:20:48.305Z,23.04
2022-12-31T23:23:19.690Z,24.08
2022-12-31T23:25:53.354Z,24.61
2022-12-31T23:28:26.756Z,25.71
2022-12-31T23:30:57.784Z,26.28
2022-12-31T23:33:28.672Z,26.16
2022-12-31T23:36:07.251Z,26.60
2022-12-31T23:38:38.520Z,26.49
2022-12-31T23:41:17.699Z,25.53
2022-12-31T23:43:48.938Z,25.20
2022-12-31T23:46:20.396Z,24.64
2022-12-31T23:48:51.754Z,25.40
2022-12-31T23:51:23.490Z,24.56
2022-12-31T23:53:54.725Z,25.00
2022-12-31T23:56:25.937Z,24.63
2022-12-31T23:58:58.083Z,24.99
